createdAt,value
2022-10-25T00:01:18.293Z,14.00
2022-10-25T00:03:45.378Z,14.00
2022-10-25T00:06:12.649Z,14.00
2022-10-25T00:08:39.813Z,14.00
2022-10-25T00:11:08.085Z,14.00
2022-10-25T00:13:34.767Z,14.00
2022-10-25T00:16:01.436Z,13.90
2022-10-25T00:18:28.062Z,14.00
2022-10-25T00:20:54.740Z,14.00
2022-10-25T00:23:21.463Z,14.00
2022-10-25T00:25:48.038Z,13.90
2022-10-25T00:28:14.676Z,13.90
2022-10-25T00:30:41.261Z,13.90
2022-10-25T00:33:07.907Z,14.10
2022-10-25T00:35:36.476Z,14.10
2022-10-25T00:38:03.314Z,14.10
2022-10-25T00:40:29.948Z,14.20
2022-10-25T00:42:56.561Z,14.20
2022-10-25T00:45:27.222Z,14.20
2022-10-25T00:47:56.594Z,14.30
2022-10-25T00:50:48.292Z,14.40
2022-10-25T00:53:22.996Z,14.50
2022-10-25T00:55:57.292Z,14.40
2022-10-25T00:58:28.003Z,14.40
2022-10-25T01:00:56.499Z,14.40
2022-10-25T01:03:24.533Z,14.40
2022-10-25T01:05:51.746Z,14.40
2022-10-25T01:08:20.170Z,14.40
2022-10-25T01:10:47.950Z,14.40
2022-10-25T01:13:15.139Z,14.40
2022-10-25T01:15:57.125Z,14.40
2022-10-25T01:18:43.950Z,14.40
2022-10-25T01:21:29.233Z,14.30
2022-10-25T01:24:27.829Z,14.30
2022-10-25T01:27:09.645Z,14.30
2022-10-25T01:29:42.093Z,14.30
2022-10-25T01:32:24.111Z,14.20
2022-10-25T01:34:57.162Z,14.10
2022-10-25T01:37:36.494Z,14.00
2022-10-25T01:40:16.846Z,13.90
2022-10-25T01:43:02.907Z,13.90
2022-10-25T01:45:45.143Z,13.90
2022-10-25T01:48:21.367Z,13.80
2022-10-25T01:50:48.779Z,13.90
2022-10-25T01:53:16.303Z,13.80
2022-10-25T01:55:57.463Z,13.90
2022-10-25T01:58:49.143Z,13.80
2022-10-25T02:01:57.178Z,13.80
2022-10-25T02:05:09.820Z,13.90
2022-10-25T02:07:46.949Z,13.90
2022-10-25T02:10:29.466Z,14.00
2022-10-25T02:13:01.993Z,14.00
2022-10-25T02:15:40.139Z,14.00
2022-10-25T02:18:17.163Z,13.80
2022-10-25T02:20:46.769Z,13.80
2022-10-25T02:23:14.700Z,13.70
2022-10-25T02:25:42.565Z,13.70
2022-10-25T02:28:14.533Z,13.70
2022-10-25T02:30:43.969Z,13.70
2022-10-25T02:33:11.695Z,13.60
2022-10-25T02:35:39.097Z,13.60
2022-10-25T02:38:06.113Z,13.60
2022-10-25T02:40:32.878Z,13.60
2022-10-25T02:42:59.535Z,13.60
2022-10-25T02:45:26.119Z,13.60
2022-10-25T02:47:52.699Z,13.60
2022-10-25T02:50:19.297Z,13.70
2022-10-25T02:52:46.079Z,13.60
2022-10-25T02:55:13.004Z,13.60
2022-10-25T02:57:39.580Z,13.70
2022-10-25T03:00:07.709Z,13.70
2022-10-25T03:02:34.403Z,13.70
2022-10-25T03:05:01.058Z,13.70
2022-10-25T03:07:27.662Z,13.80
2022-10-25T03:09:54.324Z,13.80
2022-10-25T03:12:20.970Z,13.80
2022-10-25T03:14:47.569Z,13.80
2022-10-25T03:17:14.148Z,13.80
2022-10-25T03:19:40.726Z,13.80
2022-10-25T03:22:07.342Z,13.80
2022-10-25T03:24:33.959Z,13.80
2022-10-25T03:27:01.517Z,13.90
2022-10-25T03:29:28.374Z,13.90
2022-10-25T03:31:54.921Z,13.90
2022-10-25T03:34:21.550Z,13.90
2022-10-25T03:36:48.095Z,13.80
2022-10-25T03:39:14.733Z,13.80
2022-10-25T03:41:41.362Z,13.80
2022-10-25T03:44:07.938Z,13.80
2022-10-25T03:46:34.667Z,13.80
2022-10-25T03:49:01.261Z,13.80
2022-10-25T03:51:28.013Z,13.80
2022-10-25T03:53:54.613Z,13.90
2022-10-25T03:56:21.228Z,13.90
2022-10-25T03:58:47.862Z,14.00
2022-10-25T04:01:14.730Z,14.00
2022-10-25T04:03:41.542Z,14.00
2022-10-25T04:06:08.188Z,14.00
2022-10-25T04:08:34.806Z,14.10
2022-10-25T04:11:01.376Z,14.10
2022-10-25T04:13:28.151Z,14.10
2022-10-25T04:15:54.746Z,14.10
2022-10-25T04:18:21.896Z,14.10
2022-10-25T04:20:48.507Z,14.10
2022-10-25T04:23:15.063Z,14.10
2022-10-25T04:25:41.759Z,14.10
2022-10-25T04:28:08.326Z,14.10
2022-10-25T04:30:37.934Z,14.10
2022-10-25T04:33:05.563Z,14.10
2022-10-25T04:35:32.205Z,14.10
2022-10-25T04:37:59.038Z,14.10
2022-10-25T04:40:25.657Z,14.10
2022-10-25T04:42:52.318Z,14.10
2022-10-25T04:45:19.025Z,14.20
2022-10-25T04:47:45.759Z,14.20
2022-10-25T04:50:12.402Z,14.10
2022-10-25T04:52:39.028Z,14.10
2022-10-25T04:55:05.829Z,14.10
2022-10-25T04:57:32.385Z,14.10
2022-10-25T04:59:59.126Z,14.10
2022-10-25T05:02:26.025Z,14.10
2022-10-25T05:04:52.714Z,14.10
2022-10-25T05:07:20.384Z,14.10
2022-10-25T05:09:47.892Z,14.00
2022-10-25T05:12:15.375Z,14.10
2022-10-25T05:14:42.028Z,14.10
2022-10-25T05:17:08.597Z,14.00
2022-10-25T05:19:35.198Z,14.00
2022-10-25T05:22:01.863Z,14.00
2022-10-25T05:24:28.533Z,14.00
2022-10-25T05:26:55.282Z,13.90
2022-10-25T05:29:21.928Z,13.90
2022-10-25T05:31:48.522Z,13.90
2022-10-25T05:34:15.189Z,13.80
2022-10-25T05:36:41.818Z,13.70
2022-10-25T05:39:08.364Z,13.70
2022-10-25T05:41:37.127Z,13.70
2022-10-25T05:44:05.409Z,13.70
2022-10-25T05:46:32.374Z,13.60
2022-10-25T05:48:59.848Z,13.60
2022-10-25T05:51:34.783Z,13.60
2022-10-25T05:54:07.940Z,13.60
2022-10-25T05:56:35.067Z,13.60
2022-10-25T05:59:09.346Z,13.60
2022-10-25T06:01:40.913Z,13.60
2022-10-25T06:04:08.196Z,13.70
2022-10-25T06:06:36.210Z,13.60
2022-10-25T06:09:03.371Z,13.50
2022-10-25T06:11:30.375Z,13.50
2022-10-25T06:13:57.288Z,13.50
2022-10-25T06:16:24.563Z,13.50
2022-10-25T06:18:52.184Z,13.50
2022-10-25T06:21:21.631Z,13.40
2022-10-25T06:23:48.877Z,13.40
2022-10-25T06:26:18.828Z,13.40
2022-10-25T06:28:45.600Z,13.50
2022-10-25T06:31:17.600Z,13.40
2022-10-25T06:33:44.738Z,13.50
2022-10-25T06:36:17.108Z,13.50
2022-10-25T06:38:44.073Z,13.50
2022-10-25T06:41:14.610Z,13.50
2022-10-25T06:43:41.224Z,13.50
2022-10-25T06:46:25.280Z,13.50
2022-10-25T06:48:53.935Z,13.60
2022-10-25T06:51:21.722Z,13.60
2022-10-25T06:54:00.387Z,13.60
2022-10-25T06:56:28.569Z,13.60
2022-10-25T06:58:55.931Z,13.60
2022-10-25T07:01:24.183Z,13.60
2022-10-25T07:03:53.419Z,13.60
2022-10-25T07:06:24.862Z,13.60
2022-10-25T07:08:56.531Z,13.60
2022-10-25T07:11:24.816Z,13.60
2022-10-25T07:13:51.612Z,13.70
2022-10-25T07:16:20.223Z,13.70
2022-10-25T07:18:47.355Z,13.80
2022-10-25T07:21:16.700Z,13.80
2022-10-25T07:23:43.593Z,13.90
2022-10-25T07:26:20.665Z,14.00
2022-10-25T07:28:50.434Z,14.00
2022-10-25T07:31:20.229Z,14.10
2022-10-25T07:33:48.097Z,14.10
2022-10-25T07:36:14.707Z,14.20
2022-10-25T07:38:41.454Z,14.20
2022-10-25T07:41:09.415Z,14.20
2022-10-25T07:43:37.767Z,14.30
2022-10-25T07:46:05.405Z,14.40
2022-10-25T07:48:32.711Z,14.50
2022-10-25T07:51:12.820Z,14.50
2022-10-25T07:53:40.068Z,14.60
2022-10-25T07:56:07.518Z,14.60
2022-10-25T07:58:34.417Z,14.60
2022-10-25T08:01:06.518Z,14.60
2022-10-25T08:03:33.458Z,14.70
2022-10-25T08:06:00.977Z,14.70
2022-10-25T08:08:28.880Z,14.70
2022-10-25T08:10:56.057Z,14.70
2022-10-25T08:13:22.798Z,14.70
2022-10-25T08:15:54.410Z,14.70
2022-10-25T08:18:21.392Z,14.70
2022-10-25T08:21:04.249Z,14.70
2022-10-25T08:23:32.477Z,14.80
2022-10-25T08:26:00.072Z,14.90
2022-10-25T08:28:26.706Z,14.90
2022-10-25T08:30:55.451Z,14.90
2022-10-25T08:33:22.692Z,14.90
2022-10-25T08:35:49.307Z,15.00
2022-10-25T08:38:15.881Z,14.90
2022-10-25T08:40:45.463Z,15.00
2022-10-25T08:43:57.576Z,15.00
2022-10-25T08:46:28.737Z,15.10
2022-10-25T08:49:32.410Z,15.10
2022-10-25T08:52:00.937Z,15.20
2022-10-25T08:54:39.323Z,15.10
2022-10-25T08:57:33.701Z,15.10
2022-10-25T09:00:10.468Z,15.20
2022-10-25T09:02:41.462Z,15.30
2022-10-25T09:05:40.189Z,15.30
2022-10-25T09:08:34.114Z,15.20
2022-10-25T09:11:22.876Z,15.20
2022-10-25T09:14:01.642Z,15.30
2022-10-25T09:16:56.016Z,15.20
2022-10-25T09:19:51.583Z,15.30
2022-10-25T09:22:27.137Z,15.60
2022-10-25T09:25:21.905Z,15.60
2022-10-25T09:28:03.565Z,15.50
2022-10-25T09:30:37.472Z,15.40
2022-10-25T09:33:10.164Z,15.30
2022-10-25T09:35:47.092Z,15.40
2022-10-25T09:38:25.183Z,15.60
2022-10-25T09:41:05.209Z,15.70
2022-10-25T09:43:47.161Z,15.70
2022-10-25T09:46:19.225Z,15.70
2022-10-25T09:48:56.531Z,15.60
2022-10-25T09:51:28.879Z,15.70
2022-10-25T09:53:56.411Z,15.50
2022-10-25T09:56:23.110Z,15.60
2022-10-25T09:58:49.779Z,15.50
2022-10-25T10:01:21.282Z,15.60
2022-10-25T10:03:52.300Z,15.80
2022-10-25T10:06:23.722Z,15.90
2022-10-25T10:08:58.142Z,15.80
2022-10-25T10:11:25.779Z,15.60
2022-10-25T10:13:58.906Z,15.70
2022-10-25T10:16:36.334Z,15.90
2022-10-25T10:19:13.628Z,16.20
2022-10-25T10:21:45.048Z,16.10
2022-10-25T10:24:25.269Z,15.90
2022-10-25T10:27:05.574Z,15.90
2022-10-25T10:29:35.969Z,15.90
2022-10-25T10:32:21.774Z,15.90
2022-10-25T10:34:55.002Z,15.90
2022-10-25T10:37:23.950Z,16.00
2022-10-25T10:39:54.623Z,16.00
2022-10-25T10:42:32.869Z,16.00
2022-10-25T10:45:02.450Z,16.00
2022-10-25T10:47:34.167Z,16.00
2022-10-25T10:50:02.635Z,16.10
2022-10-25T10:52:40.228Z,16.20
2022-10-25T10:55:36.497Z,16.20
2022-10-25T10:58:14.639Z,16.10
2022-10-25T11:00:52.453Z,16.10
2022-10-25T11:03:48.797Z,16.20
2022-10-25T11:06:34.692Z,16.40
2022-10-25T11:09:25.326Z,16.40
2022-10-25T11:12:12.018Z,16.30
2022-10-25T11:14:38.804Z,16.30
2022-10-25T11:17:29.764Z,16.40
2022-10-25T11:20:45.530Z,16.10
2022-10-25T11:23:49.394Z,16.10
2022-10-25T11:26:24.461Z,16.10
2022-10-25T11:29:11.024Z,16.20
2022-10-25T11:32:13.006Z,16.20
2022-10-25T11:35:04.259Z,16.40
2022-10-25T11:37:39.627Z,16.20
2022-10-25T11:40:28.077Z,16.30
2022-10-25T11:43:16.586Z,16.30
2022-10-25T11:45:50.174Z,16.50
2022-10-25T11:48:58.449Z,16.80
2022-10-25T11:54:52.808Z,16.60
2022-10-25T11:57:45.650Z,16.40
2022-10-25T12:00:12.539Z,16.60
2022-10-25T12:03:13.856Z,16.50
2022-10-25T12:05:51.304Z,16.90
2022-10-25T12:08:41.446Z,17.40
2022-10-25T12:11:17.952Z,17.70
2022-10-25T12:13:51.266Z,17.20
2022-10-25T12:16:18.889Z,17.30
2022-10-25T12:18:48.953Z,16.70
2022-10-25T12:21:21.629Z,16.40
2022-10-25T12:23:51.610Z,16.30
2022-10-25T12:26:26.831Z,16.20
2022-10-25T12:28:54.055Z,16.30
2022-10-25T12:31:25.816Z,16.60
2022-10-25T12:34:00.634Z,16.60
2022-10-25T12:36:40.625Z,16.40
2022-10-25T12:39:28.361Z,16.50
2022-10-25T12:42:02.394Z,16.50
2022-10-25T12:45:01.816Z,16.50
2022-10-25T12:47:47.220Z,17.10
2022-10-25T12:50:23.586Z,16.80
2022-10-25T12:53:17.960Z,16.70
2022-10-25T12:55:53.869Z,16.70
2022-10-25T12:58:35.814Z,16.50
2022-10-25T13:01:17.355Z,16.40
2022-10-25T13:03:57.517Z,16.30
2022-10-25T13:06:34.659Z,16.70
2022-10-25T13:09:10.670Z,17.30
2022-10-25T13:12:04.491Z,17.50
2022-10-25T13:14:32.838Z,17.40
2022-10-25T13:17:18.088Z,17.30
2022-10-25T13:19:54.949Z,17.30
2022-10-25T13:22:35.853Z,17.60
2022-10-25T13:25:13.712Z,17.70
2022-10-25T13:28:15.197Z,17.90
2022-10-25T13:30:43.112Z,17.80
2022-10-25T13:33:19.236Z,17.40
2022-10-25T13:35:48.910Z,16.90
2022-10-25T13:38:25.339Z,16.60
2022-10-25T13:41:18.961Z,16.60
2022-10-25T13:44:02.151Z,16.60
2022-10-25T13:46:48.071Z,16.60
2022-10-25T13:49:23.880Z,16.60
2022-10-25T13:51:53.718Z,16.70
2022-10-25T13:54:20.434Z,17.00
2022-10-25T13:56:52.789Z,17.00
2022-10-25T13:59:36.622Z,16.90
2022-10-25T14:02:19.641Z,16.70
2022-10-25T14:04:46.411Z,16.50
2022-10-25T14:07:45.017Z,16.50
2022-10-25T14:10:26.795Z,16.30
2022-10-25T14:13:00.104Z,16.30
2022-10-25T14:15:48.761Z,16.20
2022-10-25T14:18:21.843Z,16.20
2022-10-25T14:20:53.180Z,16.20
2022-10-25T14:23:30.163Z,16.20
2022-10-25T14:25:59.464Z,16.20
2022-10-25T14:28:28.615Z,16.20
2022-10-25T14:31:04.623Z,16.10
2022-10-25T14:33:39.329Z,16.00
2022-10-25T14:36:32.853Z,16.10
2022-10-25T14:39:17.166Z,16.00
2022-10-25T14:42:00.607Z,16.00
2022-10-25T14:44:33.038Z,16.00
2022-10-25T14:47:00.337Z,15.90
2022-10-25T14:49:27.820Z,15.90
2022-10-25T14:51:59.680Z,15.90
2022-10-25T14:54:36.281Z,15.80
2022-10-25T14:57:07.977Z,15.80
2022-10-25T14:59:46.437Z,15.80
2022-10-25T15:02:40.198Z,15.80
2022-10-25T15:05:07.416Z,15.70
2022-10-25T15:07:41.776Z,15.70
2022-10-25T15:10:37.664Z,15.70
2022-10-25T15:13:32.114Z,15.60
2022-10-25T15:16:25.482Z,15.60
2022-10-25T15:19:11.125Z,15.50
2022-10-25T15:21:51.470Z,15.40
2022-10-25T15:24:24.765Z,15.40
2022-10-25T15:26:56.116Z,15.30
2022-10-25T15:29:46.100Z,15.20
2022-10-25T15:32:21.772Z,15.10
2022-10-25T15:34:56.859Z,14.90
2022-10-25T15:37:24.456Z,14.90
2022-10-25T15:39:52.954Z,14.80
2022-10-25T15:42:20.894Z,14.70
2022-10-25T15:44:47.606Z,14.60
2022-10-25T15:47:27.492Z,14.50
2022-10-25T15:49:55.062Z,14.40
2022-10-25T15:52:22.458Z,14.40
2022-10-25T15:54:49.298Z,14.40
2022-10-25T15:57:16.653Z,14.30
2022-10-25T15:59:43.609Z,14.30
2022-10-25T16:02:36.421Z,14.10
2022-10-25T16:05:03.220Z,14.10
2022-10-25T16:07:30.815Z,14.00
2022-10-25T16:09:57.468Z,13.80
2022-10-25T16:12:31.852Z,13.80
2022-10-25T16:14:58.479Z,13.70
2022-10-25T16:17:25.184Z,13.60
2022-10-25T16:19:51.791Z,13.50
2022-10-25T16:22:18.487Z,13.40
2022-10-25T16:24:45.106Z,13.30
2022-10-25T16:27:12.903Z,13.20
2022-10-25T16:29:39.612Z,13.10
2022-10-25T16:32:06.391Z,13.00
2022-10-25T16:34:33.175Z,12.90
2022-10-25T16:36:59.822Z,12.80
2022-10-25T16:39:26.466Z,12.80
2022-10-25T16:41:54.966Z,12.70
2022-10-25T16:44:21.704Z,12.60
2022-10-25T16:46:48.301Z,12.50
2022-10-25T16:49:15.150Z,12.40
2022-10-25T16:51:42.092Z,12.40
2022-10-25T16:54:10.142Z,12.40
2022-10-25T16:56:36.795Z,12.30
2022-10-25T16:59:03.767Z,12.30
2022-10-25T17:01:34.157Z,12.30
2022-10-25T17:04:01.891Z,12.30
2022-10-25T17:06:40.724Z,12.20
2022-10-25T17:09:07.710Z,12.20
2022-10-25T17:11:34.320Z,12.10
2022-10-25T17:14:00.893Z,12.10
2022-10-25T17:16:27.548Z,12.00
2022-10-25T17:18:54.337Z,11.90
2022-10-25T17:21:20.926Z,11.90
2022-10-25T17:23:47.574Z,11.90
2022-10-25T17:26:14.155Z,11.80
2022-10-25T17:28:43.951Z,11.70
2022-10-25T17:31:14.190Z,11.70
2022-10-25T17:33:42.189Z,11.60
2022-10-25T17:36:14.774Z,11.70
2022-10-25T17:38:42.271Z,11.60
2022-10-25T17:41:10.210Z,11.60
2022-10-25T17:43:38.455Z,11.60
2022-10-25T17:46:18.421Z,11.50
2022-10-25T17:48:45.644Z,11.40
2022-10-25T17:51:14.465Z,11.40
2022-10-25T17:53:41.470Z,11.30
2022-10-25T17:56:16.394Z,11.40
2022-10-25T17:58:45.074Z,11.30
2022-10-25T18:01:13.905Z,11.30
2022-10-25T18:03:41.085Z,11.20
2022-10-25T18:09:04.846Z,11.20
2022-10-25T18:11:31.498Z,11.10
2022-10-25T18:14:02.069Z,11.10
2022-10-25T18:16:30.928Z,11.10
2022-10-25T18:19:00.539Z,11.00
2022-10-25T18:21:27.285Z,11.00
2022-10-25T18:24:01.335Z,10.90
2022-10-25T18:26:29.387Z,10.90
2022-10-25T18:28:58.041Z,10.90
2022-10-25T18:31:26.956Z,10.90
2022-10-25T18:33:59.126Z,10.90
2022-10-25T18:36:27.593Z,10.90
2022-10-25T18:38:54.662Z,10.90
2022-10-25T18:41:27.180Z,10.80
2022-10-25T18:43:54.849Z,10.80
2022-10-25T18:46:22.182Z,10.80
2022-10-25T18:48:53.277Z,10.80
2022-10-25T18:51:21.937Z,10.70
2022-10-25T18:53:52.922Z,10.70
2022-10-25T18:56:22.043Z,10.70
2022-10-25T18:59:09.541Z,10.70
2022-10-25T19:01:37.607Z,10.70
2022-10-25T19:04:04.635Z,10.70
2022-10-25T19:06:32.405Z,10.80
2022-10-25T19:08:59.459Z,10.70
2022-10-25T19:11:26.418Z,10.70
2022-10-25T19:13:55.702Z,10.70
2022-10-25T19:16:23.839Z,10.70
2022-10-25T19:18:52.800Z,10.50
2022-10-25T19:21:20.357Z,10.50
2022-10-25T19:23:48.494Z,10.50
2022-10-25T19:26:19.059Z,10.50
2022-10-25T19:28:49.340Z,10.40
2022-10-25T19:31:17.684Z,10.40
2022-10-25T19:33:48.801Z,10.40
2022-10-25T19:36:16.857Z,10.40
2022-10-25T19:38:50.147Z,10.30
2022-10-25T19:41:19.766Z,10.30
2022-10-25T19:43:46.872Z,10.20
2022-10-25T19:46:13.812Z,10.20
2022-10-25T19:48:40.690Z,10.20
2022-10-25T19:51:15.530Z,10.20
2022-10-25T19:53:42.682Z,10.10
2022-10-25T19:56:17.342Z,10.10
2022-10-25T19:58:44.367Z,10.00
2022-10-25T20:01:16.579Z,10.00
2022-10-25T20:03:43.823Z,10.00
2022-10-25T20:06:18.785Z,9.90
2022-10-25T20:08:48.505Z,10.00
2022-10-25T20:11:16.923Z,9.90
2022-10-25T20:13:43.947Z,9.90
2022-10-25T20:16:11.287Z,9.90
2022-10-25T20:18:39.366Z,9.80
2022-10-25T20:21:10.364Z,9.90
2022-10-25T20:23:37.798Z,9.80
2022-10-25T20:26:16.527Z,9.80
2022-10-25T20:28:43.589Z,9.80
2022-10-25T20:31:10.828Z,9.80
2022-10-25T20:33:38.458Z,9.80
2022-10-25T20:36:09.858Z,9.80
2022-10-25T20:38:37.408Z,9.80
2022-10-25T20:41:05.842Z,9.70
2022-10-25T20:43:33.433Z,9.70
2022-10-25T20:46:00.457Z,9.70
2022-10-25T20:48:27.347Z,9.60
2022-10-25T20:50:54.039Z,9.60
2022-10-25T20:53:21.406Z,9.60
2022-10-25T20:55:48.989Z,9.50
2022-10-25T20:58:19.950Z,9.50
2022-10-25T21:00:47.393Z,9.40
2022-10-25T21:03:15.292Z,9.40
2022-10-25T21:05:45.228Z,9.40
2022-10-25T21:08:15.433Z,9.40
2022-10-25T21:10:43.087Z,9.30
2022-10-25T21:13:10.802Z,9.30
2022-10-25T21:15:37.794Z,9.30
2022-10-25T21:18:04.483Z,9.20
2022-10-25T21:20:32.491Z,9.30
2022-10-25T21:22:59.096Z,9.20
2022-10-25T21:25:25.682Z,9.10
2022-10-25T21:27:55.779Z,9.10
2022-10-25T21:30:23.126Z,9.10
2022-10-25T21:32:49.790Z,9.10
2022-10-25T21:35:16.642Z,9.20
2022-10-25T21:37:45.511Z,9.10
2022-10-25T21:40:18.230Z,9.10
2022-10-25T21:42:45.547Z,9.00
2022-10-25T21:45:12.471Z,9.00
2022-10-25T21:47:39.179Z,9.10
2022-10-25T21:50:07.139Z,9.00
2022-10-25T21:52:33.764Z,9.00
2022-10-25T21:55:00.370Z,9.10
2022-10-25T21:57:27.070Z,9.10
2022-10-25T21:59:53.836Z,9.10
2022-10-25T22:02:20.645Z,9.00
2022-10-25T22:04:47.585Z,9.00
2022-10-25T22:07:14.173Z,9.00
2022-10-25T22:09:40.873Z,9.10
2022-10-25T22:12:07.570Z,9.00
2022-10-25T22:14:34.281Z,9.00
2022-10-25T22:17:00.979Z,9.00
2022-10-25T22:19:27.551Z,9.10
2022-10-25T22:21:54.204Z,9.10
2022-10-25T22:24:21.317Z,9.10
2022-10-25T22:26:50.380Z,9.10
2022-10-25T22:29:16.966Z,9.10
2022-10-25T22:31:43.606Z,9.10
2022-10-25T22:34:10.778Z,9.00
2022-10-25T22:36:39.659Z,9.00
2022-10-25T22:39:07.480Z,9.00
2022-10-25T22:41:34.442Z,8.90
2022-10-25T22:46:52.962Z,8.90
2022-10-25T22:49:19.611Z,8.80
2022-10-25T22:51:46.268Z,8.90
2022-10-25T22:54:13.050Z,8.80
2022-10-25T22:56:39.638Z,8.80
2022-10-25T22:59:06.973Z,8.80
2022-10-25T23:01:35.759Z,8.70
2022-10-25T23:04:04.703Z,8.70
2022-10-25T23:06:33.978Z,8.60
2022-10-25T23:09:03.478Z,8.60
2022-10-25T23:11:32.739Z,8.60
2022-10-25T23:14:00.476Z,8.60
2022-10-25T23:16:28.246Z,8.50
2022-10-25T23:18:55.322Z,8.40
2022-10-25T23:21:26.632Z,8.50
2022-10-25T23:23:54.351Z,8.50
2022-10-25T23:26:26.067Z,8.40
2022-10-25T23:28:55.536Z,8.40
2022-10-25T23:31:22.584Z,8.40
2022-10-25T23:33:54.023Z,8.40
2022-10-25T23:36:22.685Z,8.30
2022-10-25T23:38:50.868Z,8.30
2022-10-25T23:41:19.043Z,8.30
2022-10-25T23:43:46.010Z,8.20
2022-10-25T23:46:12.902Z,8.20
2022-10-25T23:48:39.913Z,8.20
2022-10-25T23:51:09.225Z,8.30
2022-10-25T23:53:36.208Z,8.20
2022-10-25T23:56:04.555Z,8.20
2022-10-25T23:58:31.499Z,8.20
